Time;durP1;ratioP1;P1;durP2;ratioP2;P2;SDS_P1;SDS_P2;PMS_P1;PMS_P2;Temp;Humidity;BMP_temperature;BMP_pressure;BME280_temperature;BME280_humidity;BME280_pressure;Samples;Min_cycle;Max_cycle;Signal;HPM_P1;HPM_P2
2022/07/28 00:00:48;;;;;;;7.97;1.48;;;;;;;;;;5072930;28;20077;-64
2022/07/28 00:03:13;;;;;;;7.97;1.35;;;;;;;;;;5073758;28;20021;-67
2022/07/28 00:05:40;;;;;;;6.53;1.50;;;;;;;;;;5073723;28;20024;-64
2022/07/28 00:08:06;;;;;;;5.57;1.73;;;;;;;;;;5073589;28;20047;-67
2022/07/28 00:10:32;;;;;;;6.90;1.30;;;;;;;;;;5073227;28;20035;-64
2022/07/28 00:12:58;;;;;;;7.75;1.50;;;;;;;;;;5073601;28;20029;-67
2022/07/28 00:15:25;;;;;;;6.45;1.38;;;;;;;;;;5073531;28;20038;-66
2022/07/28 00:17:51;;;;;;;4.82;1.38;;;;;;;;;;5073353;28;20032;-66
2022/07/28 00:20:16;;;;;;;5.88;1.45;;;;;;;;;;5073529;28;20025;-66
2022/07/28 00:22:43;;;;;;;3.53;1.13;;;;;;;;;;5073465;28;20029;-67
2022/07/28 00:25:09;;;;;;;6.18;1.40;;;;;;;;;;5073072;28;20132;-65
2022/07/28 00:27:35;;;;;;;4.82;1.40;;;;;;;;;;5073316;28;20016;-66
2022/07/28 00:30:01;;;;;;;5.10;1.48;;;;;;;;;;5073073;28;20037;-63
2022/07/28 00:32:26;;;;;;;5.20;1.33;;;;;;;;;;5073260;28;20432;-66
2022/07/28 00:34:52;;;;;;;7.45;1.30;;;;;;;;;;5073245;28;20051;-65
2022/07/28 00:37:17;;;;;;;3.13;1.60;;;;;;;;;;5073182;28;20037;-66
2022/07/28 00:39:43;;;;;;;6.10;1.48;;;;;;;;;;5072832;28;20028;-67
2022/07/28 00:42:09;;;;;;;6.03;1.48;;;;;;;;;;5073056;28;20261;-65
2022/07/28 00:44:34;;;;;;;7.97;1.60;;;;;;;;;;5072946;28;20489;-66
2022/07/28 00:47:00;;;;;;;6.10;1.45;;;;;;;;;;5073109;28;20028;-64
2022/07/28 00:49:25;;;;;;;5.32;1.27;;;;;;;;;;5072804;28;20032;-66
2022/07/28 00:51:52;;;;;;;9.02;2.05;;;;;;;;;;5072847;28;20032;-66
2022/07/28 00:54:17;;;;;;;3.83;1.40;;;;;;;;;;5072687;28;20028;-68
2022/07/28 00:56:43;;;;;;;6.13;1.65;;;;;;;;;;5072845;28;20090;-66
2022/07/28 00:59:08;;;;;;;6.47;1.45;;;;;;;;;;5072944;28;20032;-64
2022/07/28 01:01:34;;;;;;;4.60;1.33;;;;;;;;;;5072750;28;20032;-65
2022/07/28 01:04:01;;;;;;;4.53;1.35;;;;;;;;;;5072769;28;20028;-66
2022/07/28 01:06:36;;;;;;;5.25;1.70;;;;;;;;;;5072845;28;20122;-66
2022/07/28 01:09:24;;;;;;;10.02;1.67;;;;;;;;;;5072471;28;20043;-65
2022/07/28 01:12:02;;;;;;;5.75;1.40;;;;;;;;;;5066695;28;20044;-64
2022/07/28 01:14:36;;;;;;;5.95;1.67;;;;;;;;;;5072690;28;20023;-65
2022/07/28 01:17:18;;;;;;;7.38;1.63;;;;;;;;;;5072769;28;20028;-65
2022/07/28 01:20:27;;;;;;;7.05;1.60;;;;;;;;;;5072408;28;20036;-64
2022/07/28 01:23:11;;;;;;;3.28;1.25;;;;;;;;;;5030290;28;20037;-65
2022/07/28 01:25:42;;;;;;;6.13;1.60;;;;;;;;;;5030398;28;20154;-66
2022/07/28 01:28:43;;;;;;;6.78;1.88;;;;;;;;;;5030544;28;20080;-66
2022/07/28 01:31:15;;;;;;;3.92;1.80;;;;;;;;;;5030385;28;20037;-65
2022/07/28 01:33:47;;;;;;;6.35;1.35;;;;;;;;;;5030504;28;20067;-66
2022/07/28 01:36:23;;;;;;;5.03;1.63;;;;;;;;;;5030412;28;20025;-66
2022/07/28 01:38:50;;;;;;;5.07;1.60;;;;;;;;;;5030245;28;20232;-66
2022/07/28 01:41:19;;;;;;;3.08;1.23;;;;;;;;;;5030354;28;20029;-67
2022/07/28 01:43:50;;;;;;;5.93;1.30;;;;;;;;;;5030354;28;20026;-66
2022/07/28 01:46:17;;;;;;;7.00;1.60;;;;;;;;;;5030303;28;20038;-63
2022/07/28 01:48:46;;;;;;;6.32;1.40;;;;;;;;;;5030143;28;20033;-65
2022/07/28 01:51:13;;;;;;;4.45;1.50;;;;;;;;;;5030134;28;20046;-67
2022/07/28 01:53:39;;;;;;;7.20;1.70;;;;;;;;;;5029912;28;20033;-66
2022/07/28 01:56:06;;;;;;;6.38;2.30;;;;;;;;;;5013725;28;20030;-65
2022/07/28 01:58:34;;;;;;;5.80;1.60;;;;;;;;;;5055666;28;20043;-64
2022/07/28 02:01:02;;;;;;;6.53;1.60;;;;;;;;;;5072223;28;20029;-66
2022/07/28 02:03:30;;;;;;;4.43;1.33;;;;;;;;;;5072220;28;20312;-65
2022/07/28 02:05:57;;;;;;;10.68;1.90;;;;;;;;;;5072150;28;20099;-65
2022/07/28 02:08:24;;;;;;;3.55;1.67;;;;;;;;;;5072016;28;20021;-65
2022/07/28 02:13:37;;;;;;;5.90;1.20;;;;;;;;;;5052299;28;20031;-66
2022/07/28 02:16:06;;;;;;;6.53;1.73;;;;;;;;;;5052132;28;20086;-66
2022/07/28 02:18:34;;;;;;;4.30;1.30;;;;;;;;;;5051909;28;20029;-64
2022/07/28 02:21:01;;;;;;;8.20;1.48;;;;;;;;;;5051869;28;20112;-66
2022/07/28 02:23:28;;;;;;;8.43;1.98;;;;;;;;;;5052323;28;20526;-66
2022/07/28 02:25:54;;;;;;;6.38;1.70;;;;;;;;;;5055712;28;20040;-64
2022/07/28 02:28:21;;;;;;;6.30;2.08;;;;;;;;;;5055723;28;20186;-65
2022/07/28 02:31:00;;;;;;;5.93;1.52;;;;;;;;;;5055620;28;20029;-66
2022/07/28 02:33:27;;;;;;;6.10;1.42;;;;;;;;;;5055633;28;20025;-65
2022/07/28 02:35:55;;;;;;;5.60;1.55;;;;;;;;;;5055275;28;20025;-65
2022/07/28 02:38:30;;;;;;;6.50;1.80;;;;;;;;;;5055582;28;20056;-64
2022/07/28 02:41:00;;;;;;;6.43;1.58;;;;;;;;;;5055491;28;20060;-65
2022/07/28 02:43:31;;;;;;;6.70;2.03;;;;;;;;;;5055415;28;20040;-66
2022/07/28 02:46:00;;;;;;;9.00;1.40;;;;;;;;;;5055120;28;20056;-67
2022/07/28 02:48:29;;;;;;;5.40;1.83;;;;;;;;;;5055246;28;20029;-66
2022/07/28 02:50:57;;;;;;;7.07;1.63;;;;;;;;;;5054959;28;20131;-66
2022/07/28 02:53:23;;;;;;;10.55;2.40;;;;;;;;;;5055147;28;20052;-67
2022/07/28 02:55:50;;;;;;;6.78;1.55;;;;;;;;;;5053735;28;20440;-66
2022/07/28 02:58:21;;;;;;;4.80;1.38;;;;;;;;;;5055078;28;20080;-66
2022/07/28 03:00:49;;;;;;;6.35;1.50;;;;;;;;;;5055109;28;20497;-66
2022/07/28 03:03:17;;;;;;;5.30;1.67;;;;;;;;;;5055015;28;20035;-65
2022/07/28 03:05:44;;;;;;;10.18;1.88;;;;;;;;;;5054516;28;20029;-63
2022/07/28 03:08:10;;;;;;;6.07;1.90;;;;;;;;;;5054895;28;20078;-65
2022/07/28 03:10:35;;;;;;;6.93;2.08;;;;;;;;;;5054769;28;20056;-63
2022/07/28 03:13:08;;;;;;;6.75;1.40;;;;;;;;;;5054932;28;20467;-66
2022/07/28 03:15:35;;;;;;;6.72;1.50;;;;;;;;;;5053605;28;20542;-65
2022/07/28 03:18:03;;;;;;;5.32;1.52;;;;;;;;;;5054671;28;20029;-64
2022/07/28 03:20:29;;;;;;;6.70;1.70;;;;;;;;;;5054455;28;20063;-63
2022/07/28 03:22:57;;;;;;;10.63;1.75;;;;;;;;;;5054286;28;20029;-63
2022/07/28 03:25:28;;;;;;;4.72;1.67;;;;;;;;;;5054563;28;20479;-64
2022/07/28 03:27:56;;;;;;;6.30;2.22;;;;;;;;;;5054602;28;20107;-64
2022/07/28 03:30:28;;;;;;;4.20;1.63;;;;;;;;;;5054472;28;20115;-65
2022/07/28 03:33:00;;;;;;;3.50;1.25;;;;;;;;;;5054516;28;20025;-64
2022/07/28 03:35:26;;;;;;;5.57;1.63;;;;;;;;;;5054100;28;20070;-64
2022/07/28 03:37:56;;;;;;;6.55;1.45;;;;;;;;;;5054136;28;20036;-65
2022/07/28 03:40:27;;;;;;;7.80;1.55;;;;;;;;;;5054351;28;20021;-65
2022/07/28 03:42:53;;;;;;;5.82;1.70;;;;;;;;;;5054245;28;20037;-66
2022/07/28 03:45:19;;;;;;;6.82;2.10;;;;;;;;;;5054288;28;20078;-65
2022/07/28 03:47:50;;;;;;;8.48;2.00;;;;;;;;;;5053903;28;20021;-64
2022/07/28 03:50:16;;;;;;;6.15;1.80;;;;;;;;;;5054141;28;20053;-64
2022/07/28 03:52:41;;;;;;;4.63;1.58;;;;;;;;;;5054201;28;20489;-66
2022/07/28 03:55:08;;;;;;;4.60;1.45;;;;;;;;;;5054104;28;20032;-65
2022/07/28 03:57:33;;;;;;;7.47;1.60;;;;;;;;;;5053790;28;20025;-64
2022/07/28 03:59:59;;;;;;;8.07;1.88;;;;;;;;;;5053872;28;20492;-64
2022/07/28 04:02:25;;;;;;;7.55;1.70;;;;;;;;;;5053786;28;20029;-66
2022/07/28 04:04:50;;;;;;;6.78;2.00;;;;;;;;;;5053897;28;20103;-65
2022/07/28 04:07:16;;;;;;;6.03;2.25;;;;;;;;;;5053729;28;20059;-65
2022/07/28 04:09:41;;;;;;;7.72;1.85;;;;;;;;;;5053574;28;20129;-66
2022/07/28 04:12:07;;;;;;;6.65;2.22;;;;;;;;;;5053470;28;20037;-66
2022/07/28 04:14:33;;;;;;;7.40;2.00;;;;;;;;;;5052235;28;20557;-64
2022/07/28 04:16:58;;;;;;;7.10;1.75;;;;;;;;;;5053531;28;20107;-65
2022/07/28 04:19:24;;;;;;;8.10;2.40;;;;;;;;;;5053386;28;20099;-65
2022/07/28 04:21:49;;;;;;;6.47;2.08;;;;;;;;;;5053593;28;20025;-66
2022/07/28 04:24:15;;;;;;;8.13;1.77;;;;;;;;;;5053567;28;20029;-66
2022/07/28 04:26:40;;;;;;;6.30;1.80;;;;;;;;;;5053447;28;20021;-65
2022/07/28 04:29:06;;;;;;;5.72;1.65;;;;;;;;;;5053241;28;20017;-63
2022/07/28 04:31:31;;;;;;;4.90;1.50;;;;;;;;;;5053036;28;20040;-65
2022/07/28 04:33:59;;;;;;;3.55;1.83;;;;;;;;;;5053213;28;20132;-64
2022/07/28 04:36:25;;;;;;;7.22;1.73;;;;;;;;;;5053249;28;20099;-66
2022/07/28 04:38:50;;;;;;;6.28;1.60;;;;;;;;;;5053075;28;20124;-65
2022/07/28 04:41:16;;;;;;;7.75;1.60;;;;;;;;;;5053197;28;20044;-64
2022/07/28 04:43:42;;;;;;;5.53;1.70;;;;;;;;;;5052840;28;20025;-63
2022/07/28 04:46:07;;;;;;;5.88;1.80;;;;;;;;;;5052442;28;20051;-64
2022/07/28 04:48:33;;;;;;;6.30;1.77;;;;;;;;;;5052995;28;20029;-63
2022/07/28 04:50:58;;;;;;;6.80;1.95;;;;;;;;;;5052951;28;20032;-66
2022/07/28 04:53:24;;;;;;;8.18;1.95;;;;;;;;;;5052928;28;20071;-64
2022/07/28 04:55:51;;;;;;;5.45;1.65;;;;;;;;;;5052871;28;20017;-65
2022/07/28 04:58:17;;;;;;;4.28;1.50;;;;;;;;;;5052996;28;20467;-67
2022/07/28 05:00:44;;;;;;;5.60;2.35;;;;;;;;;;5052761;28;20047;-64
2022/07/28 05:03:09;;;;;;;10.35;2.10;;;;;;;;;;5052572;28;20057;-65
2022/07/28 05:05:35;;;;;;;5.47;2.00;;;;;;;;;;5052758;28;20063;-65
2022/07/28 05:08:00;;;;;;;9.82;1.77;;;;;;;;;;5052666;28;20549;-66
2022/07/28 05:10:26;;;;;;;10.77;1.83;;;;;;;;;;5052492;28;20053;-64
2022/07/28 05:12:53;;;;;;;5.75;1.70;;;;;;;;;;5052591;28;20398;-66
2022/07/28 05:15:19;;;;;;;17.88;2.38;;;;;;;;;;5052380;28;20119;-65
2022/07/28 05:17:44;;;;;;;9.07;2.40;;;;;;;;;;5052584;28;20585;-65
2022/07/28 05:20:12;;;;;;;6.18;1.60;;;;;;;;;;5052534;28;20040;-66
2022/07/28 05:22:46;;;;;;;8.65;1.75;;;;;;;;;;5052352;28;20025;-68
2022/07/28 05:25:15;;;;;;;8.77;1.88;;;;;;;;;;5052654;28;20032;-63
2022/07/28 05:27:40;;;;;;;12.50;1.90;;;;;;;;;;5052528;28;20049;-64
2022/07/28 05:30:06;;;;;;;7.63;1.50;;;;;;;;;;5052334;28;20126;-67
2022/07/28 05:32:32;;;;;;;6.53;1.80;;;;;;;;;;5052350;28;20037;-63
2022/07/28 05:34:58;;;;;;;5.65;1.50;;;;;;;;;;5052450;28;20031;-65
2022/07/28 05:37:24;;;;;;;6.20;1.42;;;;;;;;;;5052458;28;20021;-66
2022/07/28 05:39:49;;;;;;;9.75;1.98;;;;;;;;;;5052334;28;20488;-65
2022/07/28 05:42:15;;;;;;;7.75;1.70;;;;;;;;;;5052574;28;20025;-67
2022/07/28 05:44:40;;;;;;;5.50;1.52;;;;;;;;;;5052068;28;20024;-66
2022/07/28 05:47:06;;;;;;;6.18;1.73;;;;;;;;;;5052162;28;20539;-63
2022/07/28 05:49:32;;;;;;;11.85;1.60;;;;;;;;;;5052275;28;20094;-67
2022/07/28 05:51:58;;;;;;;9.32;1.50;;;;;;;;;;5052008;28;20493;-67
2022/07/28 05:54:23;;;;;;;28.90;3.85;;;;;;;;;;5052265;28;20113;-66
2022/07/28 05:56:49;;;;;;;8.05;1.95;;;;;;;;;;5052269;28;20021;-64
2022/07/28 05:59:15;;;;;;;13.43;2.00;;;;;;;;;;5053776;28;20030;-66
2022/07/28 06:01:41;;;;;;;8.80;1.55;;;;;;;;;;5056127;28;20025;-67
2022/07/28 06:04:06;;;;;;;7.13;1.75;;;;;;;;;;5056076;28;20104;-66
2022/07/28 06:06:32;;;;;;;5.03;1.40;;;;;;;;;;5055990;28;20028;-66
2022/07/28 06:08:57;;;;;;;6.75;1.92;;;;;;;;;;5056065;28;20020;-66
2022/07/28 06:11:23;;;;;;;12.65;1.80;;;;;;;;;;5055695;28;20410;-65
2022/07/28 06:13:49;;;;;;;8.23;1.50;;;;;;;;;;5055723;28;20021;-65
2022/07/28 06:16:15;;;;;;;9.02;1.65;;;;;;;;;;5055980;28;20025;-66
2022/07/28 06:18:42;;;;;;;7.80;1.67;;;;;;;;;;5055746;28;20017;-66
2022/07/28 06:21:08;;;;;;;5.10;1.55;;;;;;;;;;5055778;28;20484;-66
2022/07/28 06:23:33;;;;;;;6.85;1.40;;;;;;;;;;5055735;28;20060;-65
2022/07/28 06:25:59;;;;;;;8.65;1.40;;;;;;;;;;5055660;28;20485;-66
2022/07/28 06:28:25;;;;;;;6.35;1.38;;;;;;;;;;5055251;28;20154;-66
2022/07/28 06:30:50;;;;;;;6.75;1.63;;;;;;;;;;5055194;28;20033;-64
2022/07/28 06:33:17;;;;;;;7.38;1.65;;;;;;;;;;5055594;28;20083;-64
2022/07/28 06:35:43;;;;;;;8.43;1.75;;;;;;;;;;5055575;28;20035;-67
2022/07/28 06:38:09;;;;;;;13.63;2.22;;;;;;;;;;5055443;28;20040;-66
2022/07/28 06:40:35;;;;;;;9.23;1.60;;;;;;;;;;5055484;28;20497;-65
2022/07/28 06:43:00;;;;;;;3.95;1.50;;;;;;;;;;5055205;28;20043;-67
2022/07/28 06:45:26;;;;;;;7.72;1.42;;;;;;;;;;5055135;28;20113;-66
2022/07/28 06:47:52;;;;;;;5.97;1.90;;;;;;;;;;5055189;28;20029;-64
2022/07/28 06:50:19;;;;;;;4.38;1.23;;;;;;;;;;5055213;28;20036;-64
2022/07/28 06:52:44;;;;;;;7.45;1.35;;;;;;;;;;5055022;28;20024;-67
2022/07/28 06:55:11;;;;;;;4.97;1.23;;;;;;;;;;5055095;28;20470;-67
2022/07/28 06:57:37;;;;;;;3.40;1.30;;;;;;;;;;5054863;28;20021;-66
2022/07/28 07:00:07;;;;;;;5.40;1.33;;;;;;;;;;5055056;28;20214;-64
2022/07/28 07:02:37;;;;;;;16.23;1.83;;;;;;;;;;5056736;28;20056;-67
2022/07/28 07:05:03;;;;;;;4.97;1.52;;;;;;;;;;5054478;28;20068;-64
2022/07/28 07:07:28;;;;;;;7.63;1.40;;;;;;;;;;5054314;28;20128;-68
2022/07/28 07:09:54;;;;;;;6.65;1.15;;;;;;;;;;5053813;28;20041;-67
2022/07/28 07:12:20;;;;;;;11.70;1.60;;;;;;;;;;5054220;28;20028;-67
2022/07/28 07:14:45;;;;;;;8.00;1.45;;;;;;;;;;5054457;28;20029;-64
2022/07/28 07:17:11;;;;;;;6.07;1.35;;;;;;;;;;5054289;28;20029;-66
2022/07/28 07:19:36;;;;;;;9.75;2.15;;;;;;;;;;5052921;28;20500;-65
2022/07/28 07:22:02;;;;;;;5.03;1.50;;;;;;;;;;5054362;28;20031;-67
2022/07/28 07:24:27;;;;;;;5.15;1.60;;;;;;;;;;5054304;28;20090;-65
2022/07/28 07:26:53;;;;;;;5.35;1.60;;;;;;;;;;5053794;28;20429;-66
2022/07/28 07:29:21;;;;;;;7.97;1.30;;;;;;;;;;5053848;28;20543;-68
2022/07/28 07:31:47;;;;;;;6.90;1.20;;;;;;;;;;5054268;28;20390;-66
2022/07/28 07:34:14;;;;;;;5.63;1.45;;;;;;;;;;5053979;28;20040;-63
2022/07/28 07:36:40;;;;;;;4.72;1.55;;;;;;;;;;5053674;28;20036;-66
2022/07/28 07:39:06;;;;;;;6.68;1.75;;;;;;;;;;5053673;28;20158;-67
2022/07/28 07:41:31;;;;;;;5.32;1.40;;;;;;;;;;5053461;28;20029;-64
2022/07/28 07:43:57;;;;;;;7.28;1.45;;;;;;;;;;5053695;28;20168;-62
2022/07/28 07:46:22;;;;;;;4.78;1.40;;;;;;;;;;5053758;28;20500;-64
2022/07/28 07:48:48;;;;;;;4.97;1.13;;;;;;;;;;5053381;28;20100;-63
2022/07/28 07:51:13;;;;;;;7.90;1.70;;;;;;;;;;5052014;28;20465;-64
2022/07/28 07:53:39;;;;;;;6.90;1.25;;;;;;;;;;5053600;28;20053;-66
2022/07/28 07:56:04;;;;;;;6.00;1.65;;;;;;;;;;5052967;28;20458;-66
2022/07/28 07:58:30;;;;;;;9.77;2.03;;;;;;;;;;5053473;28;20078;-65
2022/07/28 08:00:55;;;;;;;4.03;1.17;;;;;;;;;;5053259;28;20043;-65
2022/07/28 08:03:21;;;;;;;7.25;1.33;;;;;;;;;;5053210;28;20029;-66
2022/07/28 08:05:48;;;;;;;9.18;1.60;;;;;;;;;;5053320;28;20052;-65
2022/07/28 08:08:13;;;;;;;8.43;2.20;;;;;;;;;;5052492;28;20025;-66
2022/07/28 08:10:39;;;;;;;7.50;1.67;;;;;;;;;;5052566;28;20048;-65
2022/07/28 08:13:06;;;;;;;5.25;1.55;;;;;;;;;;5052981;28;20028;-64
2022/07/28 08:15:32;;;;;;;7.47;1.70;;;;;;;;;;5052988;28;20033;-66
2022/07/28 08:17:59;;;;;;;9.00;2.50;;;;;;;;;;5052978;28;20478;-65
2022/07/28 08:20:24;;;;;;;17.13;6.38;;;;;;;;;;5052871;28;20033;-64
2022/07/28 08:22:52;;;;;;;4.22;1.30;;;;;;;;;;5052035;28;20536;-65
2022/07/28 08:25:19;;;;;;;6.97;1.52;;;;;;;;;;5052443;28;20116;-62
2022/07/28 08:27:45;;;;;;;6.72;1.65;;;;;;;;;;5052729;28;20040;-66
2022/07/28 08:30:13;;;;;;;8.43;1.40;;;;;;;;;;5052705;28;20029;-66
2022/07/28 08:32:39;;;;;;;4.30;1.50;;;;;;;;;;5052792;28;20478;-63
2022/07/28 08:35:06;;;;;;;5.15;1.67;;;;;;;;;;5052603;28;20476;-65
2022/07/28 08:37:32;;;;;;;8.05;1.40;;;;;;;;;;5052529;28;20021;-66
2022/07/28 08:39:57;;;;;;;3.72;1.10;;;;;;;;;;5051675;28;20051;-66
2022/07/28 08:42:33;;;;;;;3.60;1.17;;;;;;;;;;5050917;28;20505;-66
2022/07/28 08:45:05;;;;;;;3.25;1.15;;;;;;;;;;5049145;28;20135;-66
2022/07/28 08:47:33;;;;;;;6.57;1.23;;;;;;;;;;5052518;28;20029;-66
2022/07/28 08:49:59;;;;;;;5.93;1.38;;;;;;;;;;5052359;28;20492;-66
2022/07/28 08:52:28;;;;;;;7.18;1.30;;;;;;;;;;5051902;28;20025;-66
2022/07/28 08:54:55;;;;;;;6.30;1.33;;;;;;;;;;5052316;28;20031;-66
2022/07/28 08:57:27;;;;;;;7.00;1.52;;;;;;;;;;5052262;28;20036;-66
2022/07/28 08:59:53;;;;;;;5.10;1.40;;;;;;;;;;5052277;28;20494;-66
2022/07/28 09:02:19;;;;;;;5.90;1.27;;;;;;;;;;5051452;28;20032;-65
2022/07/28 09:04:45;;;;;;;5.40;1.40;;;;;;;;;;5052179;28;20056;-66
2022/07/28 09:07:11;;;;;;;5.00;1.30;;;;;;;;;;5051564;28;20491;-66
2022/07/28 09:09:38;;;;;;;7.65;1.20;;;;;;;;;;5051972;28;20207;-67
2022/07/28 09:12:07;;;;;;;6.85;1.10;;;;;;;;;;5052083;28;20132;-67
2022/07/28 09:14:33;;;;;;;12.15;1.30;;;;;;;;;;5052150;28;20477;-67
2022/07/28 09:17:00;;;;;;;4.65;1.35;;;;;;;;;;5052106;28;20100;-67
2022/07/28 09:19:27;;;;;;;5.40;1.02;;;;;;;;;;5051849;28;20029;-65
2022/07/28 09:21:52;;;;;;;11.63;1.45;;;;;;;;;;5051895;28;20032;-66
2022/07/28 09:24:38;;;;;;;6.78;1.30;;;;;;;;;;5052046;28;20017;-67
2022/07/28 09:27:06;;;;;;;6.57;1.90;;;;;;;;;;5051630;28;20401;-67
2022/07/28 09:29:33;;;;;;;4.10;1.40;;;;;;;;;;5052056;28;20021;-67
2022/07/28 09:31:59;;;;;;;5.55;1.70;;;;;;;;;;5051970;28;20029;-64
2022/07/28 09:34:24;;;;;;;3.80;1.50;;;;;;;;;;5058437;28;20028;-67
2022/07/28 09:36:51;;;;;;;4.35;1.75;;;;;;;;;;5058840;28;20032;-67
2022/07/28 09:39:30;;;;;;;5.13;1.40;;;;;;;;;;5058540;28;20108;-67
2022/07/28 09:41:56;;;;;;;;;;;;;;;;;;5059095;28;20067;-67
2022/07/28 09:44:23;;;;;;;4.00;1.40;;;;;;;;;;5058726;28;20054;-66
2022/07/28 09:46:49;;;;;;;8.30;2.05;;;;;;;;;;5058288;28;20095;-65
2022/07/28 09:49:15;;;;;;;6.03;1.52;;;;;;;;;;5058413;28;20021;-66
2022/07/28 09:51:41;;;;;;;3.45;1.50;;;;;;;;;;5058238;28;20386;-67
2022/07/28 09:54:14;;;;;;;6.70;1.50;;;;;;;;;;5058283;28;20027;-65
2022/07/28 09:56:42;;;;;;;7.13;1.50;;;;;;;;;;5058566;28;20374;-62
2022/07/28 09:59:09;;;;;;;4.90;1.52;;;;;;;;;;5058287;28;20063;-63
2022/07/28 10:01:57;;;;;;;4.30;1.40;;;;;;;;;;5058500;28;20024;-65
2022/07/28 10:04:40;;;;;;;4.93;1.70;;;;;;;;;;5058420;28;20068;-67
2022/07/28 10:07:15;;;;;;;4.00;1.17;;;;;;;;;;5058092;28;20029;-65
2022/07/28 10:09:42;;;;;;;6.80;1.30;;;;;;;;;;5058400;28;20047;-66
2022/07/28 10:12:25;;;;;;;6.90;1.42;;;;;;;;;;5057870;28;20363;-64
2022/07/28 10:14:53;;;;;;;7.55;1.60;;;;;;;;;;5058301;28;20454;-67
2022/07/28 10:17:32;;;;;;;4.35;1.45;;;;;;;;;;5058332;28;20021;-65
2022/07/28 10:20:00;;;;;;;6.90;1.58;;;;;;;;;;5057851;28;20124;-64
2022/07/28 10:22:32;;;;;;;3.80;1.25;;;;;;;;;;5058151;28;20064;-66
2022/07/28 10:25:05;;;;;;;4.13;1.50;;;;;;;;;;5058387;28;20032;-67
2022/07/28 10:27:31;;;;;;;14.07;2.22;;;;;;;;;;5058131;28;20086;-66
2022/07/28 10:29:59;;;;;;;7.95;2.33;;;;;;;;;;5058195;28;20447;-65
2022/07/28 10:32:25;;;;;;;3.17;1.38;;;;;;;;;;5057555;28;20043;-66
2022/07/28 10:34:59;;;;;;;3.72;1.25;;;;;;;;;;5056616;28;20033;-66
2022/07/28 10:37:26;;;;;;;5.78;1.38;;;;;;;;;;5057968;28;20033;-65
2022/07/28 10:40:07;;;;;;;6.47;1.30;;;;;;;;;;5058194;28;20076;-67
2022/07/28 10:42:34;;;;;;;3.50;1.23;;;;;;;;;;5058024;28;20081;-67
2022/07/28 10:45:01;;;;;;;4.07;1.40;;;;;;;;;;5055265;28;20113;-65
2022/07/28 10:47:27;;;;;;;5.40;1.27;;;;;;;;;;5054772;28;20131;-65
2022/07/28 10:49:54;;;;;;;6.65;1.50;;;;;;;;;;5054397;28;20149;-66
2022/07/28 10:52:20;;;;;;;3.17;1.20;;;;;;;;;;5054694;28;20032;-65
2022/07/28 10:54:57;;;;;;;5.57;1.83;;;;;;;;;;5054419;28;20036;-65
2022/07/28 10:57:24;;;;;;;4.22;1.30;;;;;;;;;;5054406;28;20474;-66
2022/07/28 11:00:21;;;;;;;4.60;1.50;;;;;;;;;;5054722;28;20529;-64
2022/07/28 11:02:59;;;;;;;4.97;1.63;;;;;;;;;;5054317;28;20059;-65
2022/07/28 11:05:31;;;;;;;5.70;1.85;;;;;;;;;;5054670;28;20069;-66
2022/07/28 11:07:59;;;;;;;6.90;2.13;;;;;;;;;;5054295;28;20021;-66
2022/07/28 11:10:27;;;;;;;9.25;2.13;;;;;;;;;;5054033;28;20056;-65
2022/07/28 11:12:55;;;;;;;5.20;1.80;;;;;;;;;;5054260;28;20025;-63
2022/07/28 11:15:28;;;;;;;4.05;1.08;;;;;;;;;;5054056;28;20483;-64
2022/07/28 11:18:05;;;;;;;3.45;1.00;;;;;;;;;;5054026;28;20142;-63
2022/07/28 11:21:03;;;;;;;3.10;0.93;;;;;;;;;;5054242;28;20032;-65
2022/07/28 11:23:39;;;;;;;5.13;1.70;;;;;;;;;;5053969;28;20124;-66
2022/07/28 11:26:20;;;;;;;8.63;1.70;;;;;;;;;;5054097;28;20032;-63
2022/07/28 11:29:04;;;;;;;6.55;1.55;;;;;;;;;;5053908;28;20033;-63
2022/07/28 11:31:47;;;;;;;4.22;1.27;;;;;;;;;;5054154;28;20110;-63
2022/07/28 11:34:14;;;;;;;11.30;1.70;;;;;;;;;;5054013;28;20029;-66
2022/07/28 11:37:09;;;;;;;5.95;1.40;;;;;;;;;;5054031;28;20045;-63
2022/07/28 11:39:44;;;;;;;3.65;1.40;;;;;;;;;;5053989;28;20112;-64
2022/07/28 11:42:29;;;;;;;5.30;1.27;;;;;;;;;;5053903;28;20029;-64
2022/07/28 11:44:56;;;;;;;8.88;2.33;;;;;;;;;;5053824;28;20465;-66
2022/07/28 11:47:24;;;;;;;3.50;1.50;;;;;;;;;;5053317;28;20045;-66
2022/07/28 11:50:16;;;;;;;3.42;1.20;;;;;;;;;;5053768;28;20032;-67
2022/07/28 11:52:55;;;;;;;4.28;1.02;;;;;;;;;;5053784;28;20028;-66
2022/07/28 11:55:21;;;;;;;;;;;;;;;;;;5053894;28;20100;-67
2022/07/28 11:57:47;;;;;;;4.40;1.20;;;;;;;;;;5052651;28;19948;-66
2022/07/28 12:00:20;;;;;;;4.85;1.35;;;;;;;;;;5053646;28;20419;-66
2022/07/28 12:02:45;;;;;;;3.08;1.27;;;;;;;;;;5053328;28;20067;-65
2022/07/28 12:05:13;;;;;;;4.35;1.25;;;;;;;;;;5053311;28;20378;-66
2022/07/28 12:07:51;;;;;;;3.95;1.20;;;;;;;;;;5053295;28;20053;-66
2022/07/28 12:10:29;;;;;;;8.63;1.20;;;;;;;;;;5052751;28;20037;-67
2022/07/28 12:12:56;;;;;;;4.75;1.30;;;;;;;;;;5053079;28;20086;-67
2022/07/28 12:15:23;;;;;;;5.35;1.20;;;;;;;;;;5052919;28;20025;-65
2022/07/28 12:17:49;;;;;;;4.78;1.50;;;;;;;;;;5053089;28;20079;-66
2022/07/28 12:20:16;;;;;;;8.05;1.20;;;;;;;;;;5058746;28;20036;-66
2022/07/28 12:23:00;;;;;;;3.88;1.20;;;;;;;;;;5052624;28;20458;-66
2022/07/28 12:25:26;;;;;;;7.30;1.65;;;;;;;;;;5052852;28;20029;-66
2022/07/28 12:27:53;;;;;;;6.65;1.92;;;;;;;;;;5052605;28;20059;-68
2022/07/28 12:30:24;;;;;;;9.70;1.83;;;;;;;;;;5052613;28;20079;-66
2022/07/28 12:32:50;;;;;;;5.45;2.25;;;;;;;;;;5052637;28;20033;-66
2022/07/28 12:35:16;;;;;;;5.43;1.67;;;;;;;;;;5052595;28;20106;-67
2022/07/28 12:37:47;;;;;;;5.93;1.98;;;;;;;;;;5052635;28;20063;-66
2022/07/28 12:40:15;;;;;;;8.40;2.20;;;;;;;;;;5052502;28;20041;-68
2022/07/28 12:42:40;;;;;;;4.30;1.55;;;;;;;;;;5052741;28;20086;-67
2022/07/28 12:45:08;;;;;;;6.30;1.80;;;;;;;;;;5052266;28;20116;-66
2022/07/28 12:47:34;;;;;;;5.05;1.70;;;;;;;;;;5051073;28;20029;-67
2022/07/28 12:50:12;;;;;;;11.45;2.30;;;;;;;;;;5052478;28;20048;-65
2022/07/28 12:52:39;;;;;;;8.57;1.92;;;;;;;;;;5052418;28;20024;-65
2022/07/28 12:55:25;;;;;;;9.30;2.10;;;;;;;;;;5052127;28;20024;-65
2022/07/28 12:57:51;;;;;;;7.65;2.10;;;;;;;;;;5052385;28;20386;-65
2022/07/28 13:00:23;;;;;;;7.28;1.98;;;;;;;;;;5052350;28;20029;-65
2022/07/28 13:02:51;;;;;;;7.20;2.30;;;;;;;;;;5052169;28;20067;-65
2022/07/28 13:06:00;;;;;;;9.05;2.40;;;;;;;;;;5052160;28;20036;-65
2022/07/28 13:08:17;;;;;;;8.45;2.25;;;;;;;;;;5058447;28;20075;-64
2022/07/28 13:10:47;;;;;;;9.40;2.47;;;;;;;;;;5051661;28;20092;-65
2022/07/28 13:13:13;;;;;;;5.32;1.70;;;;;;;;;;5051825;28;20025;-65
2022/07/28 13:15:39;;;;;;;8.75;2.25;;;;;;;;;;5051737;28;20040;-65
2022/07/28 13:18:04;;;;;;;6.68;2.50;;;;;;;;;;5051758;28;20355;-64
2022/07/28 13:20:35;;;;;;;8.40;2.30;;;;;;;;;;5051865;28;20083;-65
2022/07/28 13:23:01;;;;;;;4.47;2.10;;;;;;;;;;5051824;28;20079;-64
2022/07/28 13:25:26;;;;;;;6.40;2.38;;;;;;;;;;5051680;28;20025;-65
2022/07/28 13:27:52;;;;;;;6.90;2.42;;;;;;;;;;5051588;28;20017;-65
2022/07/28 13:30:17;;;;;;;5.18;2.13;;;;;;;;;;5051749;28;20025;-65
2022/07/28 13:32:43;;;;;;;8.13;2.55;;;;;;;;;;5051849;28;20075;-65
2022/07/28 13:35:08;;;;;;;7.78;2.70;;;;;;;;;;5051574;28;20028;-65
2022/07/28 13:37:34;;;;;;;6.43;2.05;;;;;;;;;;5051659;28;20070;-65
2022/07/28 13:40:00;;;;;;;5.85;2.55;;;;;;;;;;5051723;28;20066;-64
2022/07/28 13:42:26;;;;;;;5.93;2.63;;;;;;;;;;5050206;28;20040;-65
2022/07/28 13:44:52;;;;;;;5.95;2.28;;;;;;;;;;5051661;28;20031;-64
2022/07/28 13:47:18;;;;;;;7.60;2.72;;;;;;;;;;5051847;28;20538;-65
2022/07/28 13:49:43;;;;;;;9.80;2.38;;;;;;;;;;5051913;28;20052;-65
2022/07/28 13:52:10;;;;;;;9.93;2.70;;;;;;;;;;5051604;28;20036;-66
2022/07/28 13:54:35;;;;;;;9.05;2.63;;;;;;;;;;5051746;28;20021;-65
2022/07/28 13:57:14;;;;;;;5.68;2.70;;;;;;;;;;5051510;28;20044;-65
2022/07/28 13:59:41;;;;;;;5.10;2.50;;;;;;;;;;5051537;28;20021;-63
2022/07/28 14:02:06;;;;;;;8.48;3.38;;;;;;;;;;5051669;28;20086;-65
2022/07/28 14:04:32;;;;;;;5.75;2.83;;;;;;;;;;5051673;28;20021;-66
2022/07/28 14:06:58;;;;;;;6.40;2.88;;;;;;;;;;5051682;28;20036;-66
2022/07/28 14:09:23;;;;;;;7.32;2.60;;;;;;;;;;5051377;28;20033;-66
2022/07/28 14:11:49;;;;;;;7.03;2.50;;;;;;;;;;5049909;28;20394;-66
2022/07/28 14:14:16;;;;;;;7.20;2.90;;;;;;;;;;5051657;28;20071;-65
2022/07/28 14:16:43;;;;;;;6.13;2.58;;;;;;;;;;5051420;28;20024;-66
2022/07/28 14:19:12;;;;;;;7.72;2.50;;;;;;;;;;5053640;28;20044;-66
2022/07/28 14:21:38;;;;;;;7.15;2.80;;;;;;;;;;5060066;28;20020;-66
2022/07/28 14:24:04;;;;;;;10.70;2.63;;;;;;;;;;5054012;28;20385;-66
2022/07/28 14:26:29;;;;;;;4.75;2.63;;;;;;;;;;5054957;28;20457;-65
2022/07/28 14:28:55;;;;;;;5.15;2.83;;;;;;;;;;5060902;28;20045;-64
2022/07/28 14:31:21;;;;;;;4.88;2.38;;;;;;;;;;5055036;28;20061;-65
2022/07/28 14:33:46;;;;;;;8.75;2.80;;;;;;;;;;5055140;28;20078;-64
2022/07/28 14:36:12;;;;;;;5.93;2.53;;;;;;;;;;5055093;28;20122;-66
2022/07/28 14:38:37;;;;;;;4.38;2.30;;;;;;;;;;5054831;28;20442;-65
2022/07/28 14:41:03;;;;;;;7.88;2.63;;;;;;;;;;5053502;28;20021;-65
2022/07/28 14:43:29;;;;;;;4.68;2.22;;;;;;;;;;5054854;28;20377;-64
2022/07/28 14:45:54;;;;;;;9.32;2.53;;;;;;;;;;5054566;28;20024;-65
2022/07/28 14:48:20;;;;;;;6.95;2.60;;;;;;;;;;5054873;28;20052;-66
2022/07/28 14:50:46;;;;;;;7.60;2.63;;;;;;;;;;5051245;28;20032;-65
2022/07/28 14:53:14;;;;;;;7.78;2.67;;;;;;;;;;5050803;28;20021;-66